createdAt,value
2017-01-14T00:01:02.476Z,0
2017-01-14T00:02:11.461Z,0
2017-01-14T00:03:20.442Z,0
2017-01-14T00:04:29.421Z,0
2017-01-14T00:05:38.403Z,0
2017-01-14T00:06:47.388Z,0
2017-01-14T00:07:56.375Z,0
2017-01-14T00:09:05.359Z,0
2017-01-14T00:10:14.342Z,0
2017-01-14T00:11:23.332Z,0
2017-01-14T00:12:32.316Z,0
2017-01-14T00:13:41.300Z,0
2017-01-14T00:14:50.283Z,0
2017-01-14T00:15:59.268Z,0
2017-01-14T00:17:08.269Z,0
2017-01-14T00:18:17.248Z,0
2017-01-14T00:19:28.041Z,0
2017-01-14T00:20:38.389Z,0
2017-01-14T00:21:49.587Z,0
2017-01-14T00:23:00.786Z,0
2017-01-14T00:24:11.423Z,0
2017-01-14T00:25:23.077Z,0
2017-01-14T00:26:35.044Z,0
2017-01-14T00:27:44.032Z,0
2017-01-14T00:28:53.949Z,0
2017-01-14T00:30:03.237Z,0
2017-01-14T00:31:13.580Z,0
2017-01-14T00:32:23.326Z,0
2017-01-14T00:33:34.500Z,0
2017-01-14T00:34:44.074Z,0
2017-01-14T00:35:53.054Z,0
2017-01-14T00:37:02.040Z,0
2017-01-14T00:38:11.016Z,0
2017-01-14T00:39:20.699Z,0
2017-01-14T00:40:31.821Z,0
2017-01-14T00:41:42.560Z,0
2017-01-14T00:42:53.925Z,0
2017-01-14T00:44:02.905Z,0
2017-01-14T00:45:11.886Z,0
2017-01-14T00:46:20.867Z,0
2017-01-14T00:47:29.849Z,0
2017-01-14T00:48:38.826Z,0
2017-01-14T00:49:47.810Z,0
2017-01-14T00:50:56.784Z,0
2017-01-14T00:52:05.768Z,0
2017-01-14T00:53:14.750Z,0
2017-01-14T00:54:23.738Z,0
2017-01-14T00:55:32.717Z,0
2017-01-14T00:56:41.698Z,0
2017-01-14T00:57:50.680Z,0
2017-01-14T00:58:59.660Z,0
2017-01-14T01:00:08.643Z,0
2017-01-14T01:01:17.621Z,0
2017-01-14T01:02:26.599Z,0
2017-01-14T01:03:35.581Z,0
2017-01-14T01:04:44.564Z,0
2017-01-14T01:05:53.546Z,0
2017-01-14T01:07:02.533Z,0
2017-01-14T01:08:11.515Z,0
2017-01-14T01:09:20.499Z,0
2017-01-14T01:10:29.480Z,0
2017-01-14T01:11:38.461Z,0
2017-01-14T01:12:47.444Z,0
2017-01-14T01:13:56.423Z,0
2017-01-14T01:15:05.404Z,0
2017-01-14T01:16:14.380Z,0
2017-01-14T01:17:23.362Z,0
2017-01-14T01:18:32.343Z,0
2017-01-14T01:19:41.323Z,0
2017-01-14T01:20:50.304Z,0
2017-01-14T01:21:59.295Z,0
2017-01-14T01:23:08.274Z,0
2017-01-14T01:24:17.254Z,0
2017-01-14T01:25:26.235Z,0
2017-01-14T01:26:35.212Z,0
2017-01-14T01:27:44.193Z,0
2017-01-14T01:28:53.175Z,0
2017-01-14T01:30:02.153Z,0
2017-01-14T01:31:11.134Z,0
2017-01-14T01:32:20.126Z,0
2017-01-14T01:33:29.106Z,0
2017-01-14T01:34:38.091Z,0
2017-01-14T01:35:47.072Z,0
2017-01-14T01:36:56.052Z,0
2017-01-14T01:38:05.031Z,0
2017-01-14T01:39:14.008Z,0
2017-01-14T01:40:22.989Z,0
2017-01-14T01:41:31.968Z,0
2017-01-14T01:42:40.949Z,0
2017-01-14T01:43:49.956Z,0
2017-01-14T01:44:58.943Z,0
2017-01-14T01:46:07.926Z,0
2017-01-14T01:47:16.908Z,0
2017-01-14T01:48:25.915Z,0
2017-01-14T01:49:34.896Z,0
2017-01-14T01:50:43.877Z,0
2017-01-14T01:51:52.885Z,0
2017-01-14T01:53:01.866Z,0
2017-01-14T01:54:10.842Z,0
2017-01-14T01:55:19.822Z,0
2017-01-14T01:56:28.806Z,0
2017-01-14T01:57:37.787Z,0
2017-01-14T01:58:46.772Z,0
2017-01-14T01:59:55.749Z,0
2017-01-14T02:01:04.732Z,0
2017-01-14T02:02:13.713Z,0
2017-01-14T02:03:22.694Z,0
2017-01-14T02:04:31.672Z,0
2017-01-14T02:05:40.655Z,0
2017-01-14T02:06:49.645Z,0
2017-01-14T02:07:58.628Z,0
2017-01-14T02:09:07.605Z,0
2017-01-14T02:10:16.581Z,0
2017-01-14T02:11:25.561Z,0
2017-01-14T02:12:34.539Z,0
2017-01-14T02:13:43.519Z,0
2017-01-14T02:14:52.499Z,0
2017-01-14T02:16:01.486Z,0
2017-01-14T02:17:10.470Z,0
2017-01-14T02:18:19.460Z,0
2017-01-14T02:19:28.465Z,0
2017-01-14T02:20:37.443Z,0
2017-01-14T02:21:46.419Z,0
2017-01-14T02:22:55.398Z,0
2017-01-14T02:24:04.380Z,0
2017-01-14T02:25:13.364Z,0
2017-01-14T02:26:22.343Z,0
2017-01-14T02:27:31.324Z,0
2017-01-14T02:28:40.306Z,0
2017-01-14T02:29:49.286Z,0
2017-01-14T02:30:58.262Z,0
2017-01-14T02:32:07.241Z,0
2017-01-14T02:33:16.219Z,0
2017-01-14T02:34:25.197Z,0
2017-01-14T02:35:34.175Z,0
2017-01-14T02:36:43.158Z,0
2017-01-14T02:37:52.138Z,0
2017-01-14T02:39:01.120Z,0
2017-01-14T02:40:10.109Z,0
2017-01-14T02:41:19.092Z,0
2017-01-14T02:42:28.070Z,0
2017-01-14T02:43:37.044Z,0
2017-01-14T02:44:46.046Z,0
2017-01-14T02:45:55.028Z,0
2017-01-14T02:47:04.010Z,0
2017-01-14T02:48:12.995Z,0
2017-01-14T02:49:21.975Z,0
2017-01-14T02:50:31.799Z,0
2017-01-14T02:51:40.878Z,0
2017-01-14T02:52:50.691Z,0
2017-01-14T02:53:59.755Z,0
2017-01-14T02:55:08.742Z,0
2017-01-14T02:56:17.725Z,0
2017-01-14T02:57:26.708Z,0
2017-01-14T02:58:35.684Z,0
2017-01-14T02:59:44.660Z,0
2017-01-14T03:00:53.640Z,0
2017-01-14T03:02:02.615Z,0
2017-01-14T03:03:11.596Z,0
2017-01-14T03:04:20.603Z,0
2017-01-14T03:05:29.585Z,0
2017-01-14T03:06:38.566Z,0
2017-01-14T03:07:47.545Z,0
2017-01-14T03:08:56.528Z,0
2017-01-14T03:10:05.517Z,0
2017-01-14T03:11:14.496Z,0
2017-01-14T03:12:23.498Z,0
2017-01-14T03:13:32.478Z,0
2017-01-14T03:14:41.459Z,0
2017-01-14T03:15:50.434Z,0
2017-01-14T03:16:59.410Z,0
2017-01-14T03:18:08.385Z,0
2017-01-14T03:19:17.363Z,0
2017-01-14T03:20:26.347Z,0
2017-01-14T03:21:35.331Z,0
2017-01-14T03:22:44.313Z,0
2017-01-14T03:23:53.292Z,0
2017-01-14T03:25:02.269Z,0
2017-01-14T03:26:11.248Z,0
2017-01-14T03:27:20.226Z,0
2017-01-14T03:28:29.206Z,0
2017-01-14T03:29:38.187Z,0
2017-01-14T03:30:47.194Z,0
2017-01-14T03:31:56.173Z,0
2017-01-14T03:33:05.180Z,0
2017-01-14T03:34:14.163Z,0
2017-01-14T03:35:23.140Z,0
2017-01-14T03:36:32.122Z,0
2017-01-14T03:37:41.102Z,0
2017-01-14T03:38:50.110Z,0
2017-01-14T03:39:59.088Z,0
2017-01-14T03:41:08.073Z,0
2017-01-14T03:42:17.053Z,0
2017-01-14T03:43:26.029Z,0
2017-01-14T03:44:35.013Z,0
2017-01-14T03:45:43.998Z,0
2017-01-14T03:46:52.977Z,0
2017-01-14T03:48:01.974Z,0
2017-01-14T03:49:10.990Z,0
2017-01-14T03:50:19.967Z,0
2017-01-14T03:51:28.949Z,0
2017-01-14T03:52:37.931Z,0
2017-01-14T03:53:46.912Z,0
2017-01-14T03:54:55.891Z,0
2017-01-14T03:56:04.868Z,0
2017-01-14T03:57:13.847Z,0
2017-01-14T03:58:22.821Z,0
2017-01-14T03:59:31.806Z,0
2017-01-14T04:00:40.785Z,0
2017-01-14T04:01:49.759Z,0
2017-01-14T04:02:58.744Z,0
2017-01-14T04:04:07.730Z,0
2017-01-14T04:05:16.719Z,0
2017-01-14T04:06:25.704Z,0
2017-01-14T04:07:34.688Z,0
2017-01-14T04:08:43.670Z,0
2017-01-14T04:09:52.652Z,0
2017-01-14T04:11:01.658Z,0
2017-01-14T04:12:10.644Z,0
2017-01-14T04:13:19.624Z,0
2017-01-14T04:14:28.611Z,0
2017-01-14T04:15:37.592Z,0
2017-01-14T04:16:46.565Z,0
2017-01-14T04:17:55.546Z,0
2017-01-14T04:19:04.553Z,0
2017-01-14T04:20:13.541Z,0
2017-01-14T04:21:22.522Z,0
2017-01-14T04:22:31.507Z,0
2017-01-14T04:23:40.486Z,0
2017-01-14T04:24:49.463Z,0
2017-01-14T04:25:58.443Z,0
2017-01-14T04:27:07.425Z,0
2017-01-14T04:28:16.403Z,0
2017-01-14T04:29:25.381Z,0
2017-01-14T04:30:34.362Z,0
2017-01-14T04:31:43.338Z,0
2017-01-14T04:32:52.329Z,0
2017-01-14T04:34:01.308Z,0
2017-01-14T04:35:10.293Z,0
2017-01-14T04:36:19.274Z,0
2017-01-14T04:37:28.252Z,0
2017-01-14T04:38:37.229Z,0
2017-01-14T04:39:46.207Z,0
2017-01-14T04:40:55.186Z,0
2017-01-14T04:42:04.162Z,0
2017-01-14T04:43:13.144Z,0
2017-01-14T04:44:22.125Z,0
2017-01-14T04:45:31.105Z,0
2017-01-14T04:46:40.090Z,0
2017-01-14T04:47:49.074Z,0
2017-01-14T04:48:58.062Z,0
2017-01-14T04:50:07.040Z,0
2017-01-14T04:51:16.019Z,0
2017-01-14T04:52:25.005Z,0
2017-01-14T04:53:33.988Z,0
2017-01-14T04:54:42.967Z,0
2017-01-14T04:55:51.951Z,0
2017-01-14T04:57:00.933Z,0
2017-01-14T04:58:09.915Z,0
2017-01-14T04:59:18.896Z,0
2017-01-14T05:00:27.873Z,0
2017-01-14T05:01:36.848Z,0
2017-01-14T05:02:45.829Z,0
2017-01-14T05:03:54.806Z,0
2017-01-14T05:05:03.787Z,0
2017-01-14T05:06:12.767Z,0
2017-01-14T05:07:21.743Z,0
2017-01-14T05:08:30.721Z,0
2017-01-14T05:09:39.700Z,0
2017-01-14T05:10:48.681Z,0
2017-01-14T05:11:57.661Z,0
2017-01-14T05:13:06.641Z,0
2017-01-14T05:14:15.626Z,0
2017-01-14T05:15:24.607Z,0
2017-01-14T05:16:33.584Z,0
2017-01-14T05:17:42.562Z,0
2017-01-14T05:18:51.545Z,0
2017-01-14T05:20:00.526Z,0
2017-01-14T05:21:09.502Z,0
2017-01-14T05:22:18.485Z,0
2017-01-14T05:23:27.462Z,0
2017-01-14T05:24:36.442Z,0
2017-01-14T05:25:45.421Z,0
2017-01-14T05:26:54.399Z,0
2017-01-14T05:28:03.384Z,0
2017-01-14T05:29:12.363Z,0
2017-01-14T05:30:21.342Z,0
2017-01-14T05:31:30.337Z,0
2017-01-14T05:32:39.339Z,0
2017-01-14T05:33:48.322Z,0
2017-01-14T05:34:57.303Z,0
2017-01-14T05:36:06.282Z,0
2017-01-14T05:37:15.263Z,0
2017-01-14T05:38:24.244Z,0
2017-01-14T05:39:33.226Z,0
2017-01-14T05:40:42.208Z,0
2017-01-14T05:41:51.184Z,0
2017-01-14T05:43:00.168Z,0
2017-01-14T05:44:09.150Z,0
2017-01-14T05:45:18.132Z,0
2017-01-14T05:46:27.113Z,0
2017-01-14T05:47:36.118Z,0
2017-01-14T05:48:45.133Z,0
2017-01-14T05:49:54.108Z,0
2017-01-14T05:51:03.090Z,0
2017-01-14T05:52:12.064Z,0
2017-01-14T05:53:21.056Z,0
2017-01-14T05:54:30.049Z,0
2017-01-14T05:55:39.026Z,0
2017-01-14T05:56:48.007Z,0
2017-01-14T05:57:56.986Z,0
2017-01-14T05:59:05.971Z,0
2017-01-14T06:00:14.949Z,0
2017-01-14T06:01:23.941Z,0
2017-01-14T06:02:32.922Z,0
2017-01-14T06:03:41.907Z,0
2017-01-14T06:04:50.879Z,0
2017-01-14T06:05:59.861Z,0
2017-01-14T06:07:08.843Z,0
2017-01-14T06:08:17.822Z,0
2017-01-14T06:09:26.812Z,0
2017-01-14T06:10:35.791Z,0
2017-01-14T06:11:44.774Z,0
2017-01-14T06:12:53.756Z,0
2017-01-14T06:14:02.739Z,0
2017-01-14T06:15:11.726Z,0
2017-01-14T06:16:20.715Z,0
2017-01-14T06:17:29.696Z,0
2017-01-14T06:18:38.677Z,0
2017-01-14T06:19:47.664Z,0
2017-01-14T06:20:56.649Z,0
2017-01-14T06:22:05.632Z,0
2017-01-14T06:23:14.610Z,0
2017-01-14T06:24:23.593Z,0
2017-01-14T06:25:32.575Z,0
2017-01-14T06:26:41.562Z,0
2017-01-14T06:27:50.546Z,0
2017-01-14T06:28:59.525Z,0
2017-01-14T06:30:08.504Z,0
2017-01-14T06:31:17.493Z,0
2017-01-14T06:32:26.472Z,0
2017-01-14T06:33:35.454Z,0
2017-01-14T06:34:44.437Z,0
2017-01-14T06:35:53.439Z,0
2017-01-14T06:37:02.426Z,0
2017-01-14T06:38:11.405Z,0
2017-01-14T06:39:20.381Z,0
2017-01-14T06:40:29.363Z,0
2017-01-14T06:41:38.342Z,0
2017-01-14T06:42:47.323Z,0
2017-01-14T06:43:56.305Z,0
2017-01-14T06:45:05.286Z,0
2017-01-14T06:46:14.287Z,0
2017-01-14T06:47:23.263Z,0
2017-01-14T06:48:32.242Z,0
2017-01-14T06:49:41.228Z,0
2017-01-14T06:50:50.212Z,0
2017-01-14T06:51:59.190Z,0
2017-01-14T06:53:08.178Z,0
2017-01-14T06:54:17.157Z,0
2017-01-14T06:55:26.147Z,0
2017-01-14T06:56:35.128Z,0
2017-01-14T06:57:44.107Z,0
2017-01-14T06:58:53.086Z,0
2017-01-14T07:00:02.063Z,0
2017-01-14T07:01:11.048Z,0
2017-01-14T07:02:20.031Z,0
2017-01-14T07:03:29.012Z,0
2017-01-14T07:04:37.993Z,0
2017-01-14T07:05:46.972Z,0
2017-01-14T07:06:55.952Z,0
2017-01-14T07:08:04.954Z,0
2017-01-14T07:09:13.929Z,0
2017-01-14T07:10:22.906Z,0
2017-01-14T07:11:31.889Z,0
2017-01-14T07:12:40.870Z,0
2017-01-14T07:13:49.855Z,0
2017-01-14T07:14:58.842Z,0
2017-01-14T07:16:07.819Z,0
2017-01-14T07:17:16.800Z,0
2017-01-14T07:18:25.777Z,0
2017-01-14T07:19:34.765Z,0
2017-01-14T07:20:43.773Z,0
2017-01-14T07:21:52.760Z,0
2017-01-14T07:23:01.742Z,0
2017-01-14T07:24:10.747Z,0
2017-01-14T07:25:19.729Z,5
2017-01-14T07:26:28.705Z,5
2017-01-14T07:27:37.692Z,5
2017-01-14T07:28:46.673Z,5
2017-01-14T07:29:55.679Z,5
2017-01-14T07:31:04.692Z,5
2017-01-14T07:32:13.672Z,5
2017-01-14T07:33:22.654Z,5
2017-01-14T07:34:31.650Z,5
2017-01-14T07:35:40.630Z,5
2017-01-14T07:36:49.638Z,5
2017-01-14T07:37:58.619Z,5
2017-01-14T07:39:07.602Z,5
2017-01-14T07:40:16.587Z,5
2017-01-14T07:41:25.570Z,5
2017-01-14T07:42:34.552Z,5
2017-01-14T07:43:43.532Z,5
2017-01-14T07:44:52.519Z,5
2017-01-14T07:46:01.912Z,5
2017-01-14T07:47:10.902Z,5
2017-01-14T07:48:19.898Z,5
2017-01-14T07:49:28.881Z,5
2017-01-14T07:50:37.858Z,5
2017-01-14T07:51:46.851Z,5
2017-01-14T07:52:55.828Z,5
2017-01-14T07:54:04.812Z,5
2017-01-14T07:55:13.793Z,5
2017-01-14T07:56:22.803Z,5
2017-01-14T07:57:31.810Z,5
2017-01-14T07:58:40.793Z,5
2017-01-14T07:59:49.773Z,5
2017-01-14T08:00:58.752Z,10
2017-01-14T08:02:08.197Z,5
2017-01-14T08:03:17.177Z,5
2017-01-14T08:04:26.162Z,10
2017-01-14T08:05:35.144Z,5
2017-01-14T08:06:44.132Z,10
2017-01-14T08:07:53.105Z,5
2017-01-14T08:09:02.085Z,10
2017-01-14T08:10:11.068Z,5
2017-01-14T08:11:20.048Z,5
2017-01-14T08:12:29.030Z,5
2017-01-14T08:13:38.012Z,5
2017-01-14T08:14:46.990Z,10
2017-01-14T08:15:55.974Z,5
2017-01-14T08:17:04.971Z,5
2017-01-14T08:18:13.970Z,10
2017-01-14T08:19:22.949Z,10
2017-01-14T08:20:31.931Z,10
2017-01-14T08:21:40.916Z,10
2017-01-14T08:22:49.899Z,10
2017-01-14T08:23:58.883Z,10
2017-01-14T08:25:07.873Z,10
2017-01-14T08:26:16.885Z,10
2017-01-14T08:27:25.992Z,10
2017-01-14T08:28:34.977Z,10
2017-01-14T08:29:43.992Z,15
2017-01-14T08:30:53.334Z,15
2017-01-14T08:32:02.622Z,15
2017-01-14T08:33:11.601Z,20
2017-01-14T08:34:20.587Z,20
2017-01-14T08:35:29.568Z,20
2017-01-14T08:36:38.930Z,20
2017-01-14T08:37:48.559Z,20
2017-01-14T08:38:58.138Z,20
2017-01-14T08:40:07.484Z,20
2017-01-14T08:41:16.468Z,20
2017-01-14T08:42:25.827Z,20
2017-01-14T08:43:34.808Z,25
2017-01-14T08:44:43.823Z,25
2017-01-14T08:45:52.798Z,25
2017-01-14T08:47:01.783Z,20
2017-01-14T08:48:10.984Z,25
2017-01-14T08:49:20.332Z,25
2017-01-14T08:50:29.511Z,25
2017-01-14T08:51:38.686Z,25
2017-01-14T08:52:47.665Z,30
2017-01-14T08:53:56.651Z,30
2017-01-14T08:55:05.898Z,30
2017-01-14T08:56:15.452Z,30
2017-01-14T08:57:24.679Z,30
2017-01-14T08:58:34.133Z,25
2017-01-14T08:59:43.120Z,30
2017-01-14T09:00:52.500Z,25
2017-01-14T09:02:01.629Z,20
2017-01-14T09:03:10.736Z,20
2017-01-14T09:04:19.725Z,20
2017-01-14T09:05:28.717Z,20
2017-01-14T09:06:37.694Z,20
2017-01-14T09:07:46.674Z,20
2017-01-14T09:08:55.655Z,15
2017-01-14T09:10:04.636Z,10
2017-01-14T09:11:13.623Z,15
2017-01-14T09:12:23.012Z,20
2017-01-14T09:13:31.990Z,25
2017-01-14T09:14:40.966Z,25
2017-01-14T09:15:50.319Z,20
2017-01-14T09:16:59.450Z,20
2017-01-14T09:18:08.433Z,20
2017-01-14T09:19:17.797Z,20
2017-01-14T09:20:26.779Z,20
2017-01-14T09:21:35.759Z,20
2017-01-14T09:22:44.743Z,25
2017-01-14T09:23:53.724Z,30
2017-01-14T09:25:02.708Z,40
2017-01-14T09:26:11.687Z,50
2017-01-14T09:27:20.666Z,55
2017-01-14T09:28:29.651Z,55
2017-01-14T09:29:38.633Z,55
2017-01-14T09:30:47.612Z,50
2017-01-14T09:31:56.591Z,50
2017-01-14T09:33:05.573Z,50
2017-01-14T09:34:14.557Z,45
2017-01-14T09:35:23.543Z,45
2017-01-14T09:36:32.528Z,50
2017-01-14T09:37:41.510Z,45
2017-01-14T09:38:50.489Z,45
2017-01-14T09:39:59.475Z,45
2017-01-14T09:41:08.460Z,40
2017-01-14T09:42:17.448Z,35
2017-01-14T09:43:26.429Z,35
2017-01-14T09:44:35.415Z,30
2017-01-14T09:45:44.393Z,30
2017-01-14T09:46:53.377Z,30
2017-01-14T09:48:02.356Z,30
2017-01-14T09:49:11.337Z,40
2017-01-14T09:50:20.325Z,45
2017-01-14T09:51:29.309Z,40
2017-01-14T09:52:38.316Z,35
2017-01-14T09:53:47.301Z,35
2017-01-14T09:54:56.282Z,25
2017-01-14T09:56:05.267Z,25
2017-01-14T09:57:14.246Z,25
2017-01-14T09:58:23.230Z,30
2017-01-14T09:59:32.208Z,40
2017-01-14T10:00:41.193Z,35
2017-01-14T10:01:50.178Z,30
2017-01-14T10:02:59.158Z,25
2017-01-14T10:04:08.138Z,30
2017-01-14T10:05:17.117Z,30
2017-01-14T10:06:26.104Z,35
2017-01-14T10:07:35.089Z,35
2017-01-14T10:08:44.070Z,45
2017-01-14T10:09:53.049Z,60
2017-01-14T10:11:02.031Z,55
2017-01-14T10:12:11.019Z,45
2017-01-14T10:13:20.004Z,45
2017-01-14T10:14:28.981Z,40
2017-01-14T10:15:37.962Z,35
2017-01-14T10:16:46.947Z,30
2017-01-14T10:17:55.955Z,30
2017-01-14T10:19:04.942Z,30
2017-01-14T10:20:13.921Z,40
2017-01-14T10:21:22.900Z,40
2017-01-14T10:22:31.883Z,45
2017-01-14T10:23:40.868Z,55
2017-01-14T10:24:49.852Z,65
2017-01-14T10:25:58.845Z,65
2017-01-14T10:27:07.824Z,60
2017-01-14T10:28:16.804Z,50
2017-01-14T10:29:25.781Z,55
2017-01-14T10:30:34.767Z,50
2017-01-14T10:31:43.752Z,45
2017-01-14T10:32:52.731Z,45
2017-01-14T10:34:01.709Z,55
2017-01-14T10:35:10.697Z,60
2017-01-14T10:36:19.703Z,65
2017-01-14T10:37:28.687Z,75
2017-01-14T10:38:37.670Z,65
2017-01-14T10:39:46.656Z,60
2017-01-14T10:40:55.640Z,50
2017-01-14T10:42:04.623Z,55
2017-01-14T10:43:13.604Z,45
2017-01-14T10:44:22.583Z,35
2017-01-14T10:45:31.558Z,30
2017-01-14T10:46:40.546Z,40
2017-01-14T10:47:49.528Z,50
2017-01-14T10:48:58.540Z,60
2017-01-14T10:50:07.527Z,45
2017-01-14T10:51:16.509Z,35
2017-01-14T10:52:25.494Z,30
2017-01-14T10:53:34.477Z,30
2017-01-14T10:54:43.464Z,35
2017-01-14T10:55:52.478Z,45
2017-01-14T10:57:01.457Z,50
2017-01-14T10:58:10.440Z,50
2017-01-14T10:59:20.831Z,45
2017-01-14T11:00:30.671Z,45
2017-01-14T11:01:39.652Z,50
2017-01-14T11:02:48.627Z,50
2017-01-14T11:03:57.616Z,45
2017-01-14T11:05:08.017Z,50
2017-01-14T11:06:17.000Z,55
2017-01-14T11:07:25.995Z,60
2017-01-14T11:08:37.566Z,60
2017-01-14T11:09:47.026Z,60
2017-01-14T11:10:56.085Z,60
2017-01-14T11:12:07.064Z,50
2017-01-14T11:13:16.092Z,50
2017-01-14T11:14:25.839Z,45
2017-01-14T11:15:34.824Z,50
2017-01-14T11:16:43.809Z,60
2017-01-14T11:17:55.008Z,65
2017-01-14T11:19:04.408Z,60
2017-01-14T11:20:13.409Z,55
2017-01-14T11:21:24.569Z,60
2017-01-14T11:22:33.546Z,70
2017-01-14T11:23:44.734Z,75
2017-01-14T11:24:54.135Z,85
2017-01-14T11:26:03.116Z,75
2017-01-14T11:27:12.916Z,60
2017-01-14T11:28:22.180Z,50
2017-01-14T11:29:31.159Z,50
2017-01-14T11:30:40.138Z,55
2017-01-14T11:31:51.374Z,55
2017-01-14T11:33:00.850Z,55
2017-01-14T11:34:12.755Z,60
2017-01-14T11:35:21.738Z,55
2017-01-14T11:36:30.721Z,60
2017-01-14T11:37:40.962Z,50
2017-01-14T11:38:50.413Z,45
2017-01-14T11:40:00.043Z,40
2017-01-14T11:41:09.456Z,40
2017-01-14T11:42:18.434Z,40
2017-01-14T11:43:29.615Z,40
2017-01-14T11:44:39.013Z,35
2017-01-14T11:45:47.992Z,25
2017-01-14T11:46:58.069Z,20
2017-01-14T11:48:07.070Z,20
2017-01-14T11:49:17.974Z,25
2017-01-14T11:50:27.368Z,35
2017-01-14T11:51:36.359Z,45
2017-01-14T11:52:47.581Z,60
2017-01-14T11:53:56.997Z,55
2017-01-14T11:55:07.866Z,45
2017-01-14T11:56:16.847Z,45
2017-01-14T11:57:25.827Z,50
2017-01-14T11:58:36.355Z,45
2017-01-14T11:59:45.339Z,50
2017-01-14T12:00:54.322Z,60
2017-01-14T12:02:05.121Z,60
2017-01-14T12:03:14.515Z,40
2017-01-14T12:04:23.500Z,45
2017-01-14T12:05:33.295Z,50
2017-01-14T12:06:42.720Z,45
2017-01-14T12:07:51.732Z,45
2017-01-14T12:09:02.260Z,35
2017-01-14T12:10:11.678Z,25
2017-01-14T12:11:21.163Z,25
2017-01-14T12:12:30.805Z,20
2017-01-14T12:13:40.699Z,20
2017-01-14T12:14:49.683Z,20
2017-01-14T12:15:58.670Z,20
2017-01-14T12:17:08.787Z,20
2017-01-14T12:18:17.776Z,20
2017-01-14T12:19:26.756Z,25
2017-01-14T12:20:36.332Z,25
2017-01-14T12:21:45.317Z,25
2017-01-14T12:22:55.686Z,25
2017-01-14T12:24:04.668Z,25
2017-01-14T12:25:13.661Z,20
2017-01-14T12:26:23.892Z,25
2017-01-14T12:27:32.873Z,30
2017-01-14T12:28:43.438Z,30
2017-01-14T12:29:52.420Z,30
2017-01-14T12:31:01.410Z,30
2017-01-14T12:32:11.159Z,30
2017-01-14T12:33:20.593Z,30
2017-01-14T12:34:29.580Z,30
2017-01-14T12:35:40.549Z,30
2017-01-14T12:36:49.532Z,30
2017-01-14T12:38:00.120Z,30
2017-01-14T12:39:09.105Z,30
2017-01-14T12:40:18.087Z,30
2017-01-14T12:41:28.292Z,30
2017-01-14T12:42:37.271Z,30
2017-01-14T12:43:46.362Z,40
2017-01-14T12:44:55.955Z,45
2017-01-14T12:46:04.935Z,45
2017-01-14T12:47:14.921Z,50
2017-01-14T12:48:24.333Z,55
2017-01-14T12:49:33.310Z,55
2017-01-14T12:50:43.180Z,55
2017-01-14T12:51:52.162Z,50
2017-01-14T12:53:02.654Z,50
2017-01-14T12:54:11.637Z,40
2017-01-14T12:55:20.623Z,40
2017-01-14T12:56:30.667Z,35
2017-01-14T12:57:39.930Z,40
2017-01-14T12:58:49.529Z,40
2017-01-14T12:59:58.515Z,40
2017-01-14T13:01:07.495Z,45
2017-01-14T13:02:16.655Z,60
2017-01-14T13:03:25.638Z,65
2017-01-14T13:04:34.968Z,65
2017-01-14T13:05:43.957Z,70
2017-01-14T13:06:52.943Z,55
2017-01-14T13:08:03.915Z,45
2017-01-14T13:09:13.346Z,45
2017-01-14T13:10:22.360Z,50
2017-01-14T13:11:32.382Z,60
2017-01-14T13:12:41.375Z,75
2017-01-14T13:13:51.961Z,75
2017-01-14T13:15:01.381Z,70
2017-01-14T13:16:12.328Z,55
2017-01-14T13:17:21.748Z,50
2017-01-14T13:18:32.737Z,45
2017-01-14T13:19:42.159Z,45
2017-01-14T13:20:51.145Z,45
2017-01-14T13:22:02.275Z,40
2017-01-14T13:23:14.237Z,40
2017-01-14T13:24:23.222Z,40
2017-01-14T13:25:32.207Z,40
2017-01-14T13:26:42.096Z,40
2017-01-14T13:27:51.104Z,40
2017-01-14T13:29:00.120Z,35
2017-01-14T13:30:09.103Z,35
2017-01-14T13:31:18.092Z,35
2017-01-14T13:32:27.081Z,40
2017-01-14T13:33:36.066Z,40
2017-01-14T13:34:45.049Z,40
2017-01-14T13:35:54.033Z,40
2017-01-14T13:37:03.013Z,40
2017-01-14T13:38:11.996Z,40
2017-01-14T13:39:20.979Z,35
2017-01-14T13:40:29.973Z,35
2017-01-14T13:41:38.958Z,35
2017-01-14T13:42:47.946Z,35
2017-01-14T13:43:56.929Z,35
2017-01-14T13:45:05.919Z,35
2017-01-14T13:46:14.910Z,35
2017-01-14T13:47:23.891Z,35
2017-01-14T13:48:32.879Z,35
2017-01-14T13:49:41.864Z,35
2017-01-14T13:50:50.875Z,35
2017-01-14T13:51:59.852Z,30
2017-01-14T13:53:08.838Z,30
2017-01-14T13:54:17.823Z,30
2017-01-14T13:55:26.806Z,30
2017-01-14T13:56:35.796Z,30
2017-01-14T13:57:44.780Z,30
2017-01-14T13:58:53.765Z,30
2017-01-14T14:00:02.754Z,30
2017-01-14T14:01:11.745Z,30
2017-01-14T14:02:20.757Z,30
2017-01-14T14:03:30.155Z,30
2017-01-14T14:04:39.145Z,30
2017-01-14T14:05:48.129Z,25
2017-01-14T14:06:57.119Z,25
2017-01-14T14:08:06.102Z,25
2017-01-14T14:09:15.085Z,25
2017-01-14T14:10:24.070Z,25
2017-01-14T14:11:33.055Z,25
2017-01-14T14:12:42.042Z,25
2017-01-14T14:13:51.062Z,25
2017-01-14T14:15:00.047Z,25
2017-01-14T14:16:09.034Z,25
2017-01-14T14:17:18.032Z,25
2017-01-14T14:18:27.026Z,20
2017-01-14T14:19:36.008Z,25
2017-01-14T14:20:44.994Z,20
2017-01-14T14:21:53.979Z,20
2017-01-14T14:23:02.998Z,20
2017-01-14T14:24:11.989Z,20
2017-01-14T14:25:20.983Z,20
2017-01-14T14:26:29.962Z,20
2017-01-14T14:27:38.949Z,20
2017-01-14T14:28:47.930Z,20
2017-01-14T14:29:56.924Z,20
2017-01-14T14:31:05.909Z,20
2017-01-14T14:32:14.911Z,20
2017-01-14T14:33:23.893Z,20
2017-01-14T14:34:32.884Z,15
2017-01-14T14:35:41.894Z,15
2017-01-14T14:36:50.875Z,15
2017-01-14T14:37:59.853Z,15
2017-01-14T14:39:08.839Z,15
2017-01-14T14:40:17.827Z,15
2017-01-14T14:41:26.807Z,15
2017-01-14T14:42:35.793Z,15
2017-01-14T14:43:44.771Z,15
2017-01-14T14:44:53.752Z,15
2017-01-14T14:46:02.733Z,15
2017-01-14T14:47:11.721Z,15
2017-01-14T14:48:20.715Z,10
2017-01-14T14:49:29.697Z,10
2017-01-14T14:50:38.679Z,10
2017-01-14T14:51:47.654Z,10
2017-01-14T14:52:56.637Z,10
2017-01-14T14:54:05.622Z,10
2017-01-14T14:55:14.602Z,10
2017-01-14T14:56:23.591Z,10
2017-01-14T14:57:32.569Z,10
2017-01-14T14:58:41.550Z,10
2017-01-14T14:59:50.531Z,5
2017-01-14T15:00:59.538Z,5
2017-01-14T15:02:08.525Z,5
2017-01-14T15:03:17.501Z,5
2017-01-14T15:04:26.482Z,5
2017-01-14T15:05:35.473Z,5
2017-01-14T15:06:44.454Z,5
2017-01-14T15:07:53.441Z,5
2017-01-14T15:09:02.418Z,5
2017-01-14T15:10:11.402Z,5
2017-01-14T15:11:20.386Z,0
2017-01-14T15:12:29.366Z,0
2017-01-14T15:13:38.350Z,0
2017-01-14T15:14:47.328Z,0
2017-01-14T15:15:56.314Z,0
2017-01-14T15:17:05.298Z,0
2017-01-14T15:18:14.282Z,0
2017-01-14T15:19:23.267Z,0
2017-01-14T15:20:32.250Z,0
2017-01-14T15:21:41.231Z,0
2017-01-14T15:22:50.208Z,0
2017-01-14T15:23:59.196Z,0
2017-01-14T15:25:08.182Z,0
2017-01-14T15:26:17.167Z,0
2017-01-14T15:27:26.144Z,0
2017-01-14T15:28:35.128Z,0
2017-01-14T15:29:44.108Z,0
2017-01-14T15:30:53.085Z,0
2017-01-14T15:32:02.068Z,0
2017-01-14T15:33:11.051Z,0
2017-01-14T15:34:20.031Z,0
2017-01-14T15:35:29.023Z,0
2017-01-14T15:36:38.003Z,0
2017-01-14T15:37:46.984Z,0
2017-01-14T15:38:55.974Z,0
2017-01-14T15:40:04.949Z,0
2017-01-14T15:41:13.936Z,0
2017-01-14T15:42:22.915Z,0
2017-01-14T15:43:31.904Z,0
2017-01-14T15:44:40.884Z,0
2017-01-14T15:45:49.867Z,0
2017-01-14T15:46:58.848Z,0
2017-01-14T15:48:07.838Z,0
2017-01-14T15:49:16.821Z,0
2017-01-14T15:50:25.809Z,0
2017-01-14T15:51:34.790Z,0
2017-01-14T15:52:43.773Z,0
2017-01-14T15:53:52.757Z,0
2017-01-14T15:55:01.740Z,0
2017-01-14T15:56:10.721Z,0
2017-01-14T15:57:19.701Z,0
2017-01-14T15:58:28.693Z,0
2017-01-14T15:59:37.674Z,0
2017-01-14T16:00:46.663Z,0
2017-01-14T16:01:55.643Z,0
2017-01-14T16:03:04.626Z,0
2017-01-14T16:04:13.607Z,0
2017-01-14T16:05:22.589Z,0
2017-01-14T16:06:31.565Z,0
2017-01-14T16:07:40.577Z,0
2017-01-14T16:08:49.558Z,0
2017-01-14T16:09:58.537Z,0
2017-01-14T16:11:07.520Z,0
2017-01-14T16:12:16.521Z,0
2017-01-14T16:13:25.506Z,0
2017-01-14T16:14:34.500Z,0
2017-01-14T16:15:43.483Z,0
2017-01-14T16:16:52.462Z,0
2017-01-14T16:18:01.447Z,0
2017-01-14T16:19:10.435Z,0
2017-01-14T16:20:19.419Z,0
2017-01-14T16:21:28.402Z,0
2017-01-14T16:22:37.384Z,0
2017-01-14T16:23:46.366Z,0
2017-01-14T16:24:55.341Z,0
2017-01-14T16:26:04.326Z,0
2017-01-14T16:27:13.316Z,0
2017-01-14T16:28:22.305Z,0
2017-01-14T16:29:31.285Z,0
2017-01-14T16:30:40.264Z,0
2017-01-14T16:31:49.247Z,0
2017-01-14T16:32:58.231Z,0
2017-01-14T16:34:07.218Z,0
2017-01-14T16:35:16.202Z,0
2017-01-14T16:36:25.188Z,0
2017-01-14T16:37:34.173Z,0
2017-01-14T16:38:43.154Z,0
2017-01-14T16:39:52.134Z,0
2017-01-14T16:41:01.143Z,0
2017-01-14T16:42:10.134Z,0
2017-01-14T16:43:19.121Z,0
2017-01-14T16:44:28.108Z,0
2017-01-14T16:45:37.090Z,0
2017-01-14T16:46:46.073Z,0
2017-01-14T16:47:55.055Z,0